ADDS METAR Data INFO
IDs: Format: Raw Decoded Include TAF

Data at: 0447 UTC 21 Feb 2018

KMCC 201515Z AUTO 28004KT 10SM CLR M02/M04 A3025 RMK AO2
KMCC 201455Z AUTO 30004KT 10SM CLR M02/M05 A3024 RMK AO2
KMCC 201435Z AUTO 36003KT 10SM CLR M02/M05 A3023 RMK AO2
KMCC 201415Z AUTO 00000KT 10SM CLR M02/M04 A3023 RMK AO2
KMCC 201355Z AUTO 00000KT 10SM CLR M02/M05 A3022 RMK AO2
KMCC 201335Z AUTO 33003KT 10SM CLR M02/M05 A3022 RMK AO2
KMCC 201315Z AUTO 32004KT 10SM CLR M02/M04 A3021 RMK AO2
KMCC 201255Z AUTO 35003KT 10SM CLR M03/M04 A3020 RMK AO2
KMCC 201235Z AUTO 35004KT 10SM CLR M02/M04 A3020 RMK AO2
KMCC 201215Z AUTO 33003KT 10SM CLR M02/M03 A3019 RMK AO2
KMCC 201155Z AUTO 28003KT 10SM CLR M02/M04 A3019 RMK AO2
KMCC 201135Z AUTO 00000KT 10SM CLR M02/M04 A3019 RMK AO2
KMCC 201115Z AUTO 35005KT 10SM CLR M01/M04 A3019 RMK AO2
KMCC 201055Z AUTO 34003KT 10SM CLR M03/M06 A3019 RMK AO2
KMCC 201035Z AUTO 35005KT 10SM CLR M01/M05 A3019 RMK AO2
KMCC 201015Z AUTO 32006KT 10SM CLR 00/M05 A3020 RMK AO2
KMCC 200955Z AUTO 31006KT 10SM CLR 00/M05 A3020 RMK AO2
KMCC 200935Z AUTO 30005KT 10SM CLR 00/M04 A3019 RMK AO2
KMCC 200915Z AUTO 33005KT 10SM CLR 00/M04 A3019 RMK AO2
KMCC 200855Z AUTO 31004KT 10SM CLR 00/M04 A3018 RMK AO2
KMCC 200835Z AUTO 02003KT 10SM CLR 00/M04 A3017 RMK AO2
KMCC 200815Z AUTO 28004KT 10SM CLR 01/M04 A3016 RMK AO2
KMCC 200755Z AUTO 02003KT 10SM CLR 02/M03 A3016 RMK AO2
KMCC 200735Z AUTO 05003KT 10SM CLR 00/M04 A3015 RMK AO2
KMCC 200715Z AUTO 04003KT 10SM CLR 01/M04 A3015 RMK AO2
KMCC 200655Z AUTO 00000KT 10SM CLR 02/M04 A3014 RMK AO2
KMCC 200635Z AUTO 00000KT 10SM CLR 02/M04 A3014 RMK AO2
KMCC 200615Z AUTO 00000KT 10SM CLR 02/M04 A3013 RMK AO2
KMCC 200555Z AUTO 00000KT 10SM CLR 01/M05 A3013 RMK AO2
KMCC 200535Z AUTO 00000KT 10SM CLR 03/M05 A3013 RMK AO2
KMCC 200515Z AUTO 22003KT 10SM CLR 03/M05 A3012 RMK AO2
KMCC 200455Z AUTO 00000KT 10SM CLR 04/M05 A3011 RMK AO2
KMCC 200435Z AUTO 00000KT 10SM CLR 04/M05 A3010 RMK AO2
KMCC 200415Z AUTO 00000KT 10SM CLR 05/M06 A3009 RMK AO2
KMCC 200355Z AUTO 00000KT 10SM CLR 04/M07 A3007 RMK AO2
KMCC 200335Z AUTO 06003KT 10SM CLR 05/M08 A3007 RMK AO2
KMCC 200315Z AUTO 00000KT 10SM CLR 07/M09 A3006 RMK AO2
KMCC 200255Z AUTO 00000KT 10SM FEW045 06/M08 A3006 RMK AO2
KMCC 200235Z AUTO 33003KT 10SM FEW040 FEW048 07/M09 A3005 RMK AO2
KMCC 200215Z AUTO 33005KT 10SM CLR 07/M09 A3004 RMK AO2
KMCC 200155Z AUTO 33005KT 10SM CLR 08/M09 A3004 RMK AO2
KMCC 200135Z AUTO 34006KT 10SM CLR 08/M09 A3003 RMK AO2
KMCC 200115Z AUTO 35005KT 10SM CLR 09/M09 A3003 RMK AO2
KMCC 200055Z AUTO 35008KT 10SM CLR 10/M10 A3002 RMK AO2
KMCC 200035Z AUTO 32010KT 10SM CLR 10/M10 A3002 RMK AO2
KMCC 200015Z AUTO 33010KT 10SM CLR 10/M10 A3002 RMK AO2
KMCC 192355Z AUTO 33010G17KT 10SM CLR 10/M09 A3002 RMK AO2
KMCC 192335Z AUTO 31012G15KT 10SM CLR 10/M08 A3001 RMK AO2
KMCC 192315Z AUTO 32012G17KT 10SM CLR 10/M08 A3002 RMK AO2
KMCC 192255Z AUTO 32010KT 10SM CLR 10/M08 A3001 RMK AO2
KMCC 192235Z AUTO 33013KT 10SM CLR 10/M08 A3002 RMK AO2
KMCC 192215Z AUTO 31010G15KT 10SM CLR 10/M07 A3002 RMK AO2
KMCC 192155Z AUTO 33014KT 10SM CLR 10/M07 A3002 RMK AO2
KMCC 192135Z AUTO 30010G14KT 10SM CLR 10/M05 A3002 RMK AO2
KMCC 192115Z AUTO 30012G17KT 10SM CLR 10/M05 A3002 RMK AO2
KMCC 192055Z AUTO 31010KT 10SM FEW055 09/M05 A3003 RMK AO2
KMCC 192035Z AUTO 29009G14KT 10SM CLR 09/M05 A3004 RMK AO2
KMCC 192015Z AUTO 33009KT 290V350 10SM CLR 09/M04 A3004 RMK AO2
KMCC 191955Z AUTO 32011G15KT 10SM CLR 09/M05 A3004 RMK AO2
KMCC 191935Z AUTO 35008KT 10SM CLR 08/M04 A3005 RMK AO2
KMCC 191915Z AUTO 33011KT 10SM CLR 08/M04 A3005 RMK AO2
KMCC 191855Z AUTO 33009KT 10SM CLR 08/M03 A3004 RMK AO2
KMCC 191835Z AUTO 34006KT 10SM CLR 07/M04 A3004 RMK AO2
KMCC 191815Z AUTO 30003KT 10SM CLR 07/M02 A3005 RMK AO2
KMCC 191755Z AUTO 30003KT 10SM CLR 06/M02 A3004 RMK AO2
KMCC 191735Z AUTO 35003KT 10SM CLR 05/M02 A3004 RMK AO2
KMCC 191715Z AUTO 00000KT 10SM CLR 05/M02 A3003 RMK AO2
KMCC 191655Z AUTO 00000KT 10SM CLR 04/M02 A3003 RMK AO2